»·PEaware :: DAL8082 KIFP-KBUR

DAL8082 :: KIFP-KBUR

FLIGHT INFORMATION

Flight Status: Arrived
Operator:
Delta Air Lines
More flights by this operator :: More flights under this callsign
Pilot: Dean L. (8400)
Aircraft: MCDONNELL-DOUGLAS MD-82
(MD82)
More flights by this aircraft type
Origin: KIFP Laughlin/Bullhead Intl
United States
Destination: KBUR Bob Hope-Burbank
United States
More flights between these airports :: More routes between these airports
Route: +EED JANNY4
File this flight plan on PilotEdge
Remarks:
Altitude:
(Current/Filed)
24,000ft
Speed:
(Current/Filed)
400kts
Departed: 30-Jun-18 03:16 PM
Arrived: 30-Jun-18 04:05 PM
Distance/Time
Traveled:
196nm/0:49
Distance/Time
To Go:
Arrived

Flight Plot

Page will automatically refresh every two minutes.

Flight plan parsing failed; only flown route is shown


Map Options




Map Legend


Flown Route
Filed Route
Departure Airport
Arrival Airport
Navaid (VOR, NDB)
Fix

Horizontal Profiles

Position Reports

Time Latitude Longitude Heading Altitude Ground
Speed
30-Jun-18 15:08 35.164236 -114.556278 87 650ft 0kts
30-Jun-18 15:09 35.164236 -114.556275 87 650ft 0kts
30-Jun-18 15:10 35.164236 -114.556272 87 650ft 0kts
30-Jun-18 15:11 35.164236 -114.556269 87 650ft 0kts
30-Jun-18 15:12 35.164226 -114.556463 82 650ft 2kts
30-Jun-18 15:13 35.163966 -114.557186 42 650ft 0kts
30-Jun-18 15:14 35.165729 -114.558851 348 650ft 14kts
30-Jun-18 15:15 35.166195 -114.559341 288 650ft 0kts
30-Jun-18 15:16 35.166196 -114.559345 288 650ft 0kts
30-Jun-18 15:17 35.160632 -114.559640 178 650ft 103kts
30-Jun-18 15:18 35.118130 -114.558693 176 2903ft 167kts
30-Jun-18 15:19 35.068941 -114.551736 171 5775ft 192kts
30-Jun-18 15:20 35.000816 -114.532383 165 7218ft 279kts
30-Jun-18 15:21 34.925504 -114.509091 168 10464ft 285kts
30-Jun-18 15:22 34.838269 -114.488452 170 12070ft 346kts
30-Jun-18 15:23 34.753461 -114.528850 240 14615ft 365kts
30-Jun-18 15:24 34.759675 -114.652162 283 17196ft 385kts
30-Jun-18 15:25 34.775022 -114.781869 270 19716ft 395kts
30-Jun-18 15:26 34.776206 -114.917500 269 21950ft 407kts
30-Jun-18 15:27 34.778792 -115.059184 270 23293ft 429kts
30-Jun-18 15:28 34.781649 -115.207947 270 23813ft 455kts
30-Jun-18 15:29 34.784308 -115.358380 270 23828ft 426kts
30-Jun-18 15:29 34.786475 -115.479060 270 23841ft 427kts
30-Jun-18 15:30 34.788267 -115.623762 269 23842ft 427kts
30-Jun-18 15:31 34.790590 -115.768190 269 23843ft 427kts
30-Jun-18 15:32 34.793123 -115.912396 270 23843ft 427kts
30-Jun-18 15:34 34.796170 -116.080736 270 23843ft 426kts
30-Jun-18 15:34 34.798353 -116.200819 270 23843ft 426kts
30-Jun-18 15:35 34.796974 -116.344751 266 23844ft 424kts
30-Jun-18 15:36 34.790871 -116.488356 266 23845ft 424kts
30-Jun-18 15:37 34.783612 -116.624852 262 22122ft 381kts
30-Jun-18 15:38 34.769908 -116.754331 261 21719ft 393kts
30-Jun-18 15:39 34.756456 -116.886107 261 21287ft 391kts
30-Jun-18 15:40 34.743320 -117.016521 261 20887ft 388kts
30-Jun-18 15:41 34.730278 -117.146606 261 20483ft 386kts
30-Jun-18 15:42 34.717183 -117.275616 261 20058ft 383kts
30-Jun-18 15:43 34.703983 -117.403534 261 19620ft 380kts
30-Jun-18 15:44 34.690212 -117.530442 261 19187ft 378kts
30-Jun-18 15:45 34.677189 -117.656846 261 18554ft 377kts
30-Jun-18 15:46 34.663802 -117.780049 260 15690ft 353kts
30-Jun-18 15:47 34.651688 -117.895362 260 13556ft 348kts
30-Jun-18 15:48 34.638737 -118.011806 260 13245ft 344kts
30-Jun-18 15:49 34.621906 -118.125557 253 11701ft 340kts
30-Jun-18 15:50 34.597696 -118.229011 253 10122ft 287kts
30-Jun-18 15:51 34.577371 -118.317007 254 8712ft 260kts
30-Jun-18 15:52 34.558481 -118.399419 247 7635ft 259kts
30-Jun-18 15:53 34.509273 -118.460886 222 7198ft 242kts
30-Jun-18 15:54 34.459985 -118.511406 222 6482ft 228kts
30-Jun-18 15:55 34.411594 -118.560655 222 6039ft 228kts
30-Jun-18 15:56 34.364499 -118.608429 222 6014ft 220kts
30-Jun-18 15:57 34.317679 -118.651296 200 6079ft 212kts
30-Jun-18 15:58 34.259109 -118.664752 191 5180ft 201kts
30-Jun-18 15:59 34.208417 -118.664568 133 4094ft 195kts
30-Jun-18 16:00 34.199661 -118.603063 79 4021ft 187kts
30-Jun-18 16:01 34.200779 -118.542973 93 3387ft 165kts
30-Jun-18 16:02 34.199620 -118.489865 91 2632ft 155kts
30-Jun-18 16:03 34.198813 -118.438164 92 1875ft 149kts
30-Jun-18 16:04 34.198200 -118.390560 95 1121ft 147kts
30-Jun-18 16:05 34.197725 -118.352057 91 730ft 20kts
30-Jun-18 16:06 34.196702 -118.349410 248 730ft 0kts
30-Jun-18 16:07 34.196701 -118.349413 248 730ft 0kts
30-Jun-18 16:08 34.197111 -118.354253 264 730ft 20kts

Navigation Log

Ident Type
Flight plan parsing failed, navigation log unavailable